Time;durP1;ratioP1;P1;durP2;ratioP2;P2;SDS_P1;SDS_P2;PMS_P1;PMS_P2;Temp;Humidity;BMP_temperature;BMP_pressure;BME280_temperature;BME280_humidity;BME280_pressure;Samples;Min_cycle;Max_cycle;Signal;HPM_P1;HPM_P2
2021/11/24 00:01:22;;;;;;;55.60;32.30;;;;;;;5.82;88.16;101213.59;87892;1288;98336;-71
2021/11/24 00:03:32;;;;;;;55.30;32.50;;;;;;;5.80;88.27;101214.50;88003;1289;89272;-70
2021/11/24 00:05:42;;;;;;;54.10;32.10;;;;;;;5.79;88.18;101213.38;87971;1285;93214;-71
2021/11/24 00:07:51;;;;;;;54.90;32.50;;;;;;;5.84;88.14;101212.20;87975;1291;80665;-63
2021/11/24 00:10:04;;;;;;;51.80;30.90;;;;;;;5.82;88.03;101213.44;88011;1289;79795;-64
2021/11/24 00:12:14;;;;;;;54.90;31.50;;;;;;;5.78;88.05;101213.23;88007;1289;99252;-63
2021/11/24 00:14:26;;;;;;;55.00;31.80;;;;;;;5.80;88.14;101210.71;88014;1290;88719;-64
2021/11/24 00:16:39;;;;;;;49.60;30.30;;;;;;;5.81;88.20;101212.25;87982;1289;94750;-63
2021/11/24 00:18:49;;;;;;;56.90;33.10;;;;;;;5.86;88.15;101211.26;88020;1289;81095;-69
2021/11/24 00:21:02;;;;;;;49.00;30.10;;;;;;;5.87;88.20;101210.48;87986;1289;80995;-70
2021/11/24 00:23:11;;;;;;;55.40;31.50;;;;;;;5.88;88.27;101201.08;87967;1290;98036;-71
2021/11/24 00:25:20;;;;;;;54.50;31.60;;;;;;;5.89;88.12;101197.59;88011;1288;87846;-69
2021/11/24 00:27:33;;;;;;;50.00;32.20;;;;;;;5.95;88.07;101195.61;87986;1289;94028;-70
2021/11/24 00:29:43;;;;;;;58.30;33.70;;;;;;;5.98;88.03;101195.08;87983;1284;80940;-64
2021/11/24 00:31:52;;;;;;;57.20;33.80;;;;;;;5.96;88.17;101189.17;88027;1290;82981;-63
2021/11/24 00:34:02;;;;;;;56.20;33.00;;;;;;;5.95;87.91;101189.16;87978;1288;99267;-71
2021/11/24 00:36:11;;;;;;;54.10;30.90;;;;;;;5.92;87.80;101188.02;87998;1288;88535;-71
2021/11/24 00:38:23;;;;;;;47.20;30.20;;;;;;;5.90;87.93;101189.69;88014;1293;95957;-71
2021/11/24 00:40:33;;;;;;;49.70;28.90;;;;;;;5.87;87.81;101191.40;88012;1289;80051;-69
2021/11/24 00:42:42;;;;;;;49.60;29.10;;;;;;;5.84;87.86;101191.06;88031;1289;82830;-71
2021/11/24 00:44:51;;;;;;;43.90;27.70;;;;;;;5.78;87.87;101193.61;88033;1289;97611;-72
2021/11/24 00:47:01;;;;;;;47.20;29.10;;;;;;;5.80;88.04;101191.05;88022;1290;89521;-70
2021/11/24 00:49:11;;;;;;;46.30;29.40;;;;;;;5.80;87.92;101187.30;88000;1289;94104;-73
2021/11/24 00:51:20;;;;;;;50.80;29.50;;;;;;;5.81;87.97;101188.27;88011;1289;81507;-70
2021/11/24 00:53:29;;;;;;;46.70;28.90;;;;;;;5.83;88.06;101188.69;88001;1290;80826;-69
2021/11/24 00:55:39;;;;;;;46.70;28.30;;;;;;;5.86;88.15;101188.80;88014;1289;99488;-69
2021/11/24 00:57:48;;;;;;;47.00;28.30;;;;;;;5.86;88.06;101187.02;87978;1289;87472;-63
2021/11/24 00:59:58;;;;;;;50.20;31.00;;;;;;;5.87;87.98;101181.74;87973;1289;93663;-65
2021/11/24 01:02:07;;;;;;;44.00;28.70;;;;;;;5.89;87.96;101179.71;88001;1293;78273;-65
2021/11/24 01:04:16;;;;;;;45.70;29.80;;;;;;;5.93;87.86;101182.39;88036;1285;80058;-64
2021/11/24 01:06:27;;;;;;;47.60;28.60;;;;;;;5.92;88.00;101182.98;87989;1289;96298;-65
2021/11/24 01:08:39;;;;;;;46.90;28.30;;;;;;;5.92;87.79;101180.52;87984;1290;88798;-72
2021/11/24 01:10:49;;;;;;;44.60;28.70;;;;;;;5.90;87.80;101182.48;88009;1293;95962;-71
2021/11/24 01:13:00;;;;;;;45.90;28.00;;;;;;;5.89;87.79;101188.89;87995;1284;80465;-66
2021/11/24 01:15:13;;;;;;;47.60;28.50;;;;;;;5.85;87.75;101187.96;87904;1292;81394;-68
2021/11/24 01:17:24;;;;;;;47.40;28.90;;;;;;;5.85;87.70;101189.75;88007;1292;97484;-65
2021/11/24 01:19:34;;;;;;;43.00;27.30;;;;;;;5.85;87.72;101183.00;87984;1291;88214;-66
2021/11/24 01:21:44;;;;;;;45.60;27.90;;;;;;;5.85;87.68;101183.36;87958;1289;95353;-66
2021/11/24 01:23:55;;;;;;;44.40;27.70;;;;;;;5.86;87.86;101177.73;88000;1289;80875;-65
2021/11/24 01:26:05;;;;;;;48.40;29.40;;;;;;;5.85;87.84;101177.08;87906;1293;83398;-66
2021/11/24 01:28:18;;;;;;;43.00;26.80;;;;;;;5.88;87.87;101176.27;87961;1289;98117;-74
2021/11/24 01:30:28;;;;;;;45.40;28.40;;;;;;;5.90;87.87;101175.32;87997;1288;87137;-71
2021/11/24 01:32:39;;;;;;;42.30;25.50;;;;;;;5.88;87.74;101174.13;87972;1289;94894;-69
2021/11/24 01:34:48;;;;;;;42.10;27.90;;;;;;;5.91;87.72;101175.86;87972;1284;79198;-70
2021/11/24 01:37:00;;;;;;;41.80;27.50;;;;;;;5.90;87.70;101169.80;87998;1290;80649;-71
2021/11/24 01:39:10;;;;;;;42.10;27.10;;;;;;;5.90;87.78;101166.11;88021;1289;97774;-65
2021/11/24 01:41:22;;;;;;;44.10;28.40;;;;;;;5.85;87.73;101167.96;87976;1286;87584;-64
2021/11/24 01:43:32;;;;;;;42.40;26.30;;;;;;;5.87;87.68;101169.20;87919;1293;94098;-71
2021/11/24 01:45:41;;;;;;;42.10;25.90;;;;;;;5.89;87.81;101166.15;87989;1292;79870;-68
2021/11/24 01:47:55;;;;;;;40.80;25.90;;;;;;;5.90;87.57;101167.81;88022;1289;81444;-70
2021/11/24 01:50:04;;;;;;;44.60;28.10;;;;;;;5.91;87.59;101166.48;88006;1290;99436;-70
2021/11/24 01:52:17;;;;;;;39.30;26.10;;;;;;;5.91;87.58;101168.70;87994;1288;88844;-70
2021/11/24 01:54:28;;;;;;;46.90;28.70;;;;;;;5.93;87.51;101168.09;87952;1290;94181;-71
2021/11/24 01:56:38;;;;;;;47.00;28.60;;;;;;;5.93;87.67;101165.75;87983;1289;78389;-72
2021/11/24 01:58:49;;;;;;;49.10;29.00;;;;;;;5.91;87.44;101169.05;88004;1284;82936;-70
2021/11/24 02:00:59;;;;;;;45.70;27.80;;;;;;;5.89;87.46;101163.15;87945;1289;99551;-71
2021/11/24 02:03:10;;;;;;;50.10;28.20;;;;;;;5.84;87.45;101161.77;87958;1285;89132;-69
2021/11/24 02:05:20;;;;;;;47.80;27.00;;;;;;;5.81;87.55;101161.00;87977;1288;95172;-70
2021/11/24 02:07:30;;;;;;;43.10;27.80;;;;;;;5.79;87.37;101154.21;87982;1288;80030;-70
2021/11/24 02:09:43;;;;;;;42.30;24.80;;;;;;;5.72;87.37;101157.49;88011;1290;82868;-65
2021/11/24 02:11:56;;;;;;;39.60;24.20;;;;;;;5.67;87.52;101157.79;87994;1290;98355;-67
2021/11/24 02:14:06;;;;;;;42.90;25.30;;;;;;;5.69;87.57;101156.89;87988;1289;88566;-70
2021/11/24 02:16:16;;;;;;;39.00;24.30;;;;;;;5.68;87.30;101152.35;87953;1293;95547;-70
2021/11/24 02:18:25;;;;;;;39.80;23.90;;;;;;;5.67;87.37;101150.48;87962;1289;80363;-70
2021/11/24 02:20:44;;;;;;;39.40;23.80;;;;;;;5.70;87.39;101144.45;87988;1293;81958;-70
2021/11/24 02:22:54;;;;;;;35.80;23.00;;;;;;;5.71;87.49;101143.48;87985;1293;99421;-70
2021/11/24 02:25:07;;;;;;;35.20;22.80;;;;;;;5.71;87.42;101140.63;87990;1283;87841;-70
2021/11/24 02:27:17;;;;;;;38.10;23.80;;;;;;;5.71;87.55;101134.94;87990;1290;96127;-72
2021/11/24 02:29:27;;;;;;;34.90;21.40;;;;;;;5.70;87.41;101132.18;87986;1289;81289;-68
2021/11/24 02:31:37;;;;;;;32.00;21.00;;;;;;;5.71;87.36;101131.48;88024;1290;82566;-67
2021/11/24 02:33:56;;;;;;;30.30;20.30;;;;;;;5.72;87.37;101125.02;88006;1289;98002;-72
2021/11/24 02:36:08;;;;;;;32.90;19.70;;;;;;;5.70;87.22;101124.70;87992;1288;89504;-68
2021/11/24 02:38:19;;;;;;;32.40;20.40;;;;;;;5.66;87.48;101123.73;87979;1289;95479;-71
2021/11/24 02:40:35;;;;;;;30.50;20.90;;;;;;;5.69;87.35;101121.20;87990;1289;82639;-70
2021/11/24 02:42:45;;;;;;;34.00;20.50;;;;;;;5.68;87.24;101126.65;88060;1289;82618;-71
2021/11/24 02:44:55;;;;;;;31.40;20.10;;;;;;;5.70;87.39;101125.05;87985;1289;99389;-70
2021/11/24 02:47:15;;;;;;;29.70;20.40;;;;;;;5.72;87.32;101122.27;88027;1288;88321;-70
2021/11/24 02:49:24;;;;;;;33.80;21.00;;;;;;;5.72;87.36;101125.85;87972;1293;94772;-73
2021/11/24 02:51:33;;;;;;;31.20;20.40;;;;;;;5.69;87.25;101123.11;87965;1290;79823;-70
2021/11/24 02:53:43;;;;;;;34.90;20.90;;;;;;;5.69;87.28;101119.06;88020;1293;83539;-71
2021/11/24 02:55:52;;;;;;;32.70;20.20;;;;;;;5.71;87.13;101112.93;87995;1292;96782;-70
2021/11/24 02:58:02;;;;;;;34.60;22.00;;;;;;;5.69;87.12;101115.10;87996;1290;86804;-70
2021/11/24 03:00:19;;;;;;;32.00;19.90;;;;;;;5.68;87.24;101114.29;87970;1293;95790;-71
2021/11/24 03:02:34;;;;;;;32.60;20.30;;;;;;;5.69;87.20;101111.89;87993;1292;80025;-72
2021/11/24 03:04:46;;;;;;;35.60;21.50;;;;;;;5.72;87.18;101110.70;87997;1286;80524;-64
2021/11/24 03:06:55;;;;;;;36.80;22.70;;;;;;;5.72;87.11;101107.30;87911;1294;99559;-63
2021/11/24 03:09:06;;;;;;;35.20;21.70;;;;;;;5.73;87.02;101106.45;88016;1290;89223;-66
2021/11/24 03:11:15;;;;;;;40.00;23.20;;;;;;;5.73;87.11;101108.08;87969;1289;93562;-67
2021/11/24 03:13:24;;;;;;;33.40;21.40;;;;;;;5.72;87.11;101109.11;87985;1289;79025;-65
2021/11/24 03:15:34;;;;;;;35.50;22.10;;;;;;;5.70;87.10;101108.00;88038;1289;82611;-63
2021/11/24 03:17:44;;;;;;;37.60;22.90;;;;;;;5.73;87.27;101107.55;88004;1289;97331;-70
2021/11/24 03:19:53;;;;;;;38.90;24.70;;;;;;;5.71;87.27;101109.58;87978;1291;88981;-70
2021/11/24 03:22:03;;;;;;;36.70;22.90;;;;;;;5.68;87.25;101110.87;87991;1288;95628;-69
2021/11/24 03:24:12;;;;;;;35.50;22.00;;;;;;;5.67;87.29;101114.17;87981;1292;79615;-64
2021/11/24 03:26:22;;;;;;;37.00;22.60;;;;;;;5.70;87.33;101112.65;88001;1290;82034;-65
2021/11/24 03:28:31;;;;;;;35.60;22.80;;;;;;;5.69;87.41;101108.64;88002;1290;99669;-69
2021/11/24 03:30:41;;;;;;;38.20;23.00;;;;;;;5.67;87.23;101109.60;88013;1290;88161;-70
2021/11/24 03:32:51;;;;;;;37.10;22.90;;;;;;;5.67;87.20;101102.20;87959;1290;93856;-69
2021/11/24 03:35:01;;;;;;;35.90;22.60;;;;;;;5.70;87.39;101101.21;87976;1289;82163;-69
2021/11/24 03:37:10;;;;;;;34.80;22.00;;;;;;;5.74;87.47;101101.98;87981;1291;82442;-70
2021/11/24 03:39:19;;;;;;;35.00;21.40;;;;;;;5.74;87.34;101099.05;87994;1290;99268;-65
2021/11/24 03:41:29;;;;;;;34.20;21.70;;;;;;;5.77;87.29;101106.13;87988;1288;87224;-65
2021/11/24 03:43:39;;;;;;;35.30;21.10;;;;;;;5.75;87.42;101102.52;87986;1284;93666;-65
2021/11/24 03:45:48;;;;;;;34.90;21.30;;;;;;;5.82;87.32;101101.23;87991;1293;79642;-65
2021/11/24 03:47:58;;;;;;;37.90;22.10;;;;;;;5.81;87.38;101098.02;88024;1292;81974;-69
2021/11/24 03:50:14;;;;;;;37.50;21.60;;;;;;;5.81;87.38;101103.63;88006;1288;99511;-69
2021/11/24 03:52:23;;;;;;;36.70;21.60;;;;;;;5.81;87.29;101101.68;87982;1290;89044;-70
2021/11/24 03:54:36;;;;;;;43.00;22.80;;;;;;;5.84;87.24;101094.98;87985;1292;92811;-64
2021/11/24 03:56:46;;;;;;;36.80;21.70;;;;;;;5.86;87.35;101101.17;88011;1288;80775;-66
2021/11/24 03:58:55;;;;;;;34.90;21.60;;;;;;;5.88;87.31;101102.60;88002;1289;83764;-70
2021/11/24 04:01:06;;;;;;;35.50;19.70;;;;;;;5.84;87.34;101103.50;88029;1291;98604;-69
2021/11/24 04:03:15;;;;;;;35.30;21.10;;;;;;;5.85;87.39;101099.84;88001;1284;87502;-69
2021/11/24 04:05:25;;;;;;;38.70;22.00;;;;;;;5.87;87.34;101098.20;87986;1293;95669;-69
2021/11/24 04:07:38;;;;;;;38.80;21.50;;;;;;;5.89;87.30;101092.52;87982;1288;78927;-66
2021/11/24 04:09:49;;;;;;;37.10;22.70;;;;;;;5.85;87.37;101088.27;87989;1289;82774;-65
2021/11/24 04:11:58;;;;;;;42.00;23.20;;;;;;;5.85;87.33;101091.09;87991;1293;98414;-65
2021/11/24 04:14:11;;;;;;;41.80;24.50;;;;;;;5.82;87.32;101090.77;87962;1293;89049;-64
2021/11/24 04:16:20;;;;;;;41.70;23.50;;;;;;;5.80;87.35;101089.80;87993;1288;94417;-65
2021/11/24 04:18:30;;;;;;;39.20;22.00;;;;;;;5.75;87.24;101088.95;87986;1289;80668;-65
2021/11/24 04:20:43;;;;;;;37.60;21.00;;;;;;;5.70;87.39;101085.68;88024;1291;82901;-65
2021/11/24 04:22:52;;;;;;;37.70;22.30;;;;;;;5.70;87.31;101091.58;87991;1286;96739;-69
2021/11/24 04:25:03;;;;;;;39.10;23.40;;;;;;;5.72;87.41;101088.33;87985;1289;87856;-70
2021/11/24 04:27:12;;;;;;;36.80;21.90;;;;;;;5.73;87.34;101090.75;87986;1290;93122;-70
2021/11/24 04:29:22;;;;;;;34.60;20.50;;;;;;;5.74;87.60;101088.36;87953;1293;78889;-64
2021/11/24 04:31:32;;;;;;;35.10;21.30;;;;;;;5.73;87.49;101086.11;87988;1288;82098;-63
2021/11/24 04:33:42;;;;;;;35.90;21.00;;;;;;;5.75;87.56;101085.60;88031;1288;96891;-64
2021/11/24 04:35:54;;;;;;;36.90;20.40;;;;;;;5.74;87.43;101082.65;87997;1290;89773;-63
2021/11/24 04:38:04;;;;;;;34.70;19.60;;;;;;;5.73;87.69;101084.72;87999;1290;95702;-73
2021/11/24 04:40:17;;;;;;;37.90;21.70;;;;;;;5.75;87.63;101084.33;88004;1290;80474;-71
2021/11/24 04:42:27;;;;;;;32.30;20.00;;;;;;;5.78;87.61;101091.23;87994;1290;82530;-70
2021/11/24 04:44:37;;;;;;;34.40;20.30;;;;;;;5.79;87.48;101089.89;87978;1283;96023;-62
2021/11/24 04:46:48;;;;;;;35.20;19.40;;;;;;;5.82;87.44;101085.50;88010;1288;88836;-64
2021/11/24 04:48:58;;;;;;;34.60;19.80;;;;;;;5.83;87.40;101084.67;87980;1289;95365;-70
2021/11/24 04:51:10;;;;;;;33.50;20.00;;;;;;;5.80;87.37;101087.77;87979;1288;79705;-70
2021/11/24 04:53:20;;;;;;;32.80;19.90;;;;;;;5.80;87.43;101089.94;87984;1292;81698;-69
2021/11/24 04:55:31;;;;;;;31.20;20.00;;;;;;;5.80;87.40;101083.16;87995;1286;95725;-70
2021/11/24 04:57:40;;;;;;;35.60;20.80;;;;;;;5.81;87.32;101083.76;87992;1288;86755;-70
2021/11/24 04:59:50;;;;;;;35.00;20.90;;;;;;;5.80;87.37;101081.50;87980;1288;93210;-69
2021/11/24 05:01:59;;;;;;;38.10;20.60;;;;;;;5.80;87.49;101083.16;87969;1293;80328;-70
2021/11/24 05:04:12;;;;;;;33.20;19.30;;;;;;;5.82;87.35;101080.85;87908;1284;81103;-63
2021/11/24 05:06:23;;;;;;;32.50;19.10;;;;;;;5.83;87.32;101081.61;87967;1292;98583;-63
2021/11/24 05:08:34;;;;;;;34.00;20.50;;;;;;;5.80;87.31;101079.71;87994;1293;89369;-63
2021/11/24 05:10:44;;;;;;;32.40;20.60;;;;;;;5.77;87.28;101079.83;87961;1289;93473;-65
2021/11/24 05:12:54;;;;;;;31.70;19.80;;;;;;;5.74;87.30;101080.98;87968;1287;80022;-67
2021/11/24 05:15:04;;;;;;;32.20;20.00;;;;;;;5.75;87.17;101078.65;88003;1289;81649;-70
2021/11/24 05:17:19;;;;;;;34.30;19.20;;;;;;;5.73;87.34;101078.85;87972;1287;96729;-69
2021/11/24 05:19:34;;;;;;;33.60;20.10;;;;;;;5.71;87.35;101077.58;87947;1293;86825;-69
2021/11/24 05:21:45;;;;;;;32.30;20.20;;;;;;;5.69;87.21;101082.77;87950;1290;95339;-69
2021/11/24 05:23:57;;;;;;;32.00;19.20;;;;;;;5.70;87.28;101080.35;87984;1288;82098;-64
2021/11/24 05:26:07;;;;;;;32.70;19.60;;;;;;;5.71;87.36;101077.79;87940;1293;83593;-64
2021/11/24 05:28:16;;;;;;;31.50;19.30;;;;;;;5.71;87.30;101083.24;88018;1286;96254;-69
2021/11/24 05:30:27;;;;;;;31.90;19.70;;;;;;;5.70;87.25;101082.10;88002;1293;89189;-69
2021/11/24 05:32:37;;;;;;;31.70;19.20;;;;;;;5.68;87.37;101077.80;87969;1288;93810;-66
2021/11/24 05:34:47;;;;;;;33.60;20.30;;;;;;;5.68;87.48;101071.93;87987;1293;82953;-64
2021/11/24 05:36:56;;;;;;;32.70;19.70;;;;;;;5.65;87.39;101072.59;87994;1290;82118;-64
2021/11/24 05:39:10;;;;;;;33.00;18.90;;;;;;;5.66;87.43;101073.37;87973;1293;99003;-69
2021/11/24 05:41:20;;;;;;;35.10;20.20;;;;;;;5.65;87.42;101075.06;88008;1293;87314;-68
2021/11/24 05:43:34;;;;;;;32.70;19.50;;;;;;;5.67;87.45;101078.59;88005;1281;92667;-68
2021/11/24 05:45:48;;;;;;;30.90;19.50;;;;;;;5.68;87.41;101077.13;87981;1293;81462;-67
2021/11/24 05:48:03;;;;;;;32.30;19.00;;;;;;;5.65;87.41;101080.42;87968;1293;82937;-63
2021/11/24 05:50:14;;;;;;;30.90;19.20;;;;;;;5.69;87.38;101075.39;87987;1288;98632;-63
2021/11/24 05:52:23;;;;;;;29.90;18.00;;;;;;;5.72;87.38;101072.27;87982;1293;89101;-64
2021/11/24 05:54:35;;;;;;;32.90;19.40;;;;;;;5.73;87.30;101066.35;88010;1286;92807;-68
2021/11/24 05:56:45;;;;;;;32.50;19.60;;;;;;;5.75;87.39;101070.35;87988;1293;82587;-68
2021/11/24 05:58:55;;;;;;;29.40;19.20;;;;;;;5.73;87.37;101073.66;87965;1293;82830;-68
2021/11/24 06:01:07;;;;;;;31.30;19.10;;;;;;;5.70;87.33;101078.04;87959;1291;99179;-68
2021/11/24 06:03:17;;;;;;;30.30;18.30;;;;;;;5.71;87.33;101079.49;87988;1292;87213;-64
2021/11/24 06:05:26;;;;;;;30.10;18.50;;;;;;;5.73;87.28;101083.65;87961;1293;95451;-64
2021/11/24 06:07:36;;;;;;;28.20;17.90;;;;;;;5.73;87.33;101082.89;87963;1289;81745;-65
2021/11/24 06:09:45;;;;;;;32.40;20.10;;;;;;;5.72;87.43;101086.59;87987;1291;82947;-65
2021/11/24 06:11:55;;;;;;;29.50;18.70;;;;;;;5.72;87.34;101085.27;87973;1287;95841;-64
2021/11/24 06:14:05;;;;;;;30.60;19.00;;;;;;;5.72;87.14;101089.81;87995;1291;89044;-70
2021/11/24 06:16:18;;;;;;;30.50;20.20;;;;;;;5.73;87.31;101092.42;88001;1293;95344;-70
2021/11/24 06:18:27;;;;;;;27.90;19.60;;;;;;;5.70;87.20;101087.45;87978;1289;78732;-63
2021/11/24 06:20:39;;;;;;;33.40;20.50;;;;;;;5.70;87.26;101088.39;87977;1289;81793;-64
2021/11/24 06:22:50;;;;;;;32.90;19.90;;;;;;;5.69;87.43;101089.17;87939;1288;96998;-64
2021/11/24 06:25:03;;;;;;;30.50;19.20;;;;;;;5.72;87.29;101090.64;87998;1291;87208;-66
2021/11/24 06:27:13;;;;;;;32.30;18.50;;;;;;;5.75;87.32;101094.02;87979;1293;95131;-64
2021/11/24 06:29:25;;;;;;;30.10;19.80;;;;;;;5.76;87.40;101091.55;88003;1289;79362;-68
2021/11/24 06:31:35;;;;;;;30.00;17.90;;;;;;;5.77;87.46;101093.91;87975;1293;84453;-68
2021/11/24 06:33:45;;;;;;;26.00;17.50;;;;;;;5.76;87.38;101090.63;87937;1288;98293;-68
2021/11/24 06:35:58;;;;;;;28.80;18.60;;;;;;;5.79;87.35;101089.29;87992;1293;89169;-69
2021/11/24 06:38:08;;;;;;;32.20;19.00;;;;;;;5.78;87.53;101091.52;87915;1288;95065;-68
2021/11/24 06:40:18;;;;;;;27.70;17.60;;;;;;;5.76;87.31;101091.23;87964;1281;78980;-67
2021/11/24 06:42:28;;;;;;;30.40;18.60;;;;;;;5.75;87.23;101093.41;87953;1289;82108;-69
2021/11/24 06:44:38;;;;;;;31.00;19.20;;;;;;;5.77;87.30;101096.48;88003;1292;97021;-69
2021/11/24 06:46:47;;;;;;;28.60;19.10;;;;;;;5.77;87.22;101093.42;87947;1292;87421;-69
2021/11/24 06:49:00;;;;;;;26.80;17.70;;;;;;;5.80;87.34;101095.33;87896;1288;94336;-69
2021/11/24 06:51:10;;;;;;;27.80;18.30;;;;;;;5.82;87.26;101099.02;87984;1284;79237;-70
2021/11/24 06:53:23;;;;;;;28.40;19.30;;;;;;;5.86;87.27;101102.94;87969;1288;82079;-63
2021/11/24 06:55:32;;;;;;;30.20;18.60;;;;;;;5.93;87.35;101102.86;87963;1289;98636;-63
2021/11/24 06:57:45;;;;;;;32.80;20.50;;;;;;;5.96;87.10;101103.00;87978;1288;88862;-64
2021/11/24 06:59:55;;;;;;;29.70;19.50;;;;;;;5.95;87.23;101104.66;87955;1289;92911;-70
2021/11/24 07:02:09;;;;;;;30.20;19.40;;;;;;;5.95;87.16;101106.84;87967;1289;78189;-70
2021/11/24 07:04:19;;;;;;;27.20;18.60;;;;;;;5.94;87.38;101103.15;87995;1292;82472;-71
2021/11/24 07:06:28;;;;;;;28.90;18.90;;;;;;;5.95;87.19;101104.66;87966;1293;98333;-70
2021/11/24 07:08:38;;;;;;;28.60;18.70;;;;;;;5.97;87.15;101106.99;87973;1292;88583;-63
2021/11/24 07:10:48;;;;;;;29.60;18.40;;;;;;;5.96;87.11;101105.24;87968;1289;95508;-63
2021/11/24 07:12:58;;;;;;;26.90;19.00;;;;;;;5.99;87.08;101108.23;87960;1289;81620;-62
2021/11/24 07:15:10;;;;;;;29.20;19.10;;;;;;;5.99;87.20;101110.23;87975;1288;82158;-62
2021/11/24 07:17:20;;;;;;;29.50;18.90;;;;;;;6.00;87.22;101108.80;87993;1284;97529;-63
2021/11/24 07:19:30;;;;;;;28.70;18.20;;;;;;;6.00;87.14;101107.73;87961;1288;89152;-70
2021/11/24 07:21:40;;;;;;;26.80;18.40;;;;;;;6.02;87.19;101108.46;87982;1290;95880;-70
2021/11/24 07:23:50;;;;;;;26.80;17.20;;;;;;;6.04;87.07;101102.59;88000;1292;79541;-70
2021/11/24 07:26:00;;;;;;;28.80;19.10;;;;;;;6.12;87.07;101102.66;87911;1296;82939;-70
2021/11/24 07:28:10;;;;;;;30.50;17.90;;;;;;;6.20;87.06;101105.13;87945;1288;98603;-70
2021/11/24 07:30:21;;;;;;;26.50;19.10;;;;;;;6.18;87.23;101103.16;88001;1286;87547;-72
2021/11/24 07:32:31;;;;;;;29.40;19.10;;;;;;;6.20;87.09;101103.39;87971;1291;93882;-70
2021/11/24 07:34:41;;;;;;;28.30;19.00;;;;;;;6.25;87.01;101105.41;87970;1292;79981;-63
2021/11/24 07:36:50;;;;;;;29.00;18.70;;;;;;;6.28;86.98;101106.70;87961;1288;81570;-63
2021/11/24 07:39:03;;;;;;;27.50;19.60;;;;;;;6.29;87.07;101106.05;87976;1291;99158;-63
2021/11/24 07:41:12;;;;;;;29.50;19.30;;;;;;;6.32;87.03;101104.35;87963;1288;87559;-62
2021/11/24 07:43:22;;;;;;;29.40;20.00;;;;;;;6.33;86.85;101102.79;87970;1288;95383;-62
2021/11/24 07:45:31;;;;;;;28.80;18.70;;;;;;;6.31;86.84;101100.88;87984;1284;79848;-63
2021/11/24 07:47:41;;;;;;;30.20;19.30;;;;;;;6.27;86.92;101100.66;87967;1284;80026;-69
2021/11/24 07:49:50;;;;;;;27.60;18.80;;;;;;;6.28;86.80;101102.64;87843;1293;194939;-70
2021/11/24 07:51:59;;;;;;;26.60;17.60;;;;;;;6.23;86.69;101101.08;87981;1288;89267;-70
2021/11/24 07:54:09;;;;;;;28.40;19.20;;;;;;;6.19;86.77;101101.19;87925;1293;95255;-63
2021/11/24 07:56:22;;;;;;;27.40;18.90;;;;;;;6.19;86.92;101103.48;87952;1293;79057;-62
2021/11/24 08:01:19;;;;;;;27.00;18.40;;;;;;;6.21;86.86;101107.39;82754;1292;934249;-71
2021/11/24 08:03:28;;;;;;;27.00;18.30;;;;;;;6.21;86.95;101111.79;86917;1298;86696;-70
2021/11/24 08:05:38;;;;;;;26.90;17.90;;;;;;;6.23;86.95;101106.63;86934;1298;95768;-63
2021/11/24 08:07:49;;;;;;;24.10;17.40;;;;;;;6.26;86.87;101105.23;86947;1298;81736;-70
2021/11/24 08:09:58;;;;;;;31.00;18.90;;;;;;;6.29;87.01;101103.77;86932;1298;79541;-71
2021/11/24 08:12:11;;;;;;;25.80;18.50;;;;;;;6.32;87.00;101096.64;86915;1298;98086;-70
2021/11/24 08:14:22;;;;;;;26.80;18.30;;;;;;;6.37;86.92;101094.43;86932;1297;85728;-69
2021/11/24 08:16:32;;;;;;;25.90;17.70;;;;;;;6.45;86.84;101096.69;86852;1302;96457;-70
2021/11/24 08:18:42;;;;;;;25.30;18.40;;;;;;;6.44;86.87;101094.96;86905;1302;79919;-70
2021/11/24 08:20:52;;;;;;;26.60;18.00;;;;;;;6.41;86.86;101094.67;86911;1303;83528;-69
2021/11/24 08:23:04;;;;;;;24.60;17.30;;;;;;;6.46;86.85;101094.63;86949;1301;98990;-70
2021/11/24 08:25:15;;;;;;;24.30;18.00;;;;;;;6.49;86.65;101097.89;86929;1304;88972;-71
2021/11/24 08:27:24;;;;;;;26.60;18.10;;;;;;;6.49;86.61;101093.17;86916;1299;94488;-69
2021/11/24 08:29:35;;;;;;;23.30;18.00;;;;;;;6.49;86.53;101095.56;86898;1302;81790;-69
2021/11/24 08:31:45;;;;;;;26.30;18.90;;;;;;;6.45;86.56;101100.23;86920;1298;80969;-64
2021/11/24 08:33:57;;;;;;;27.00;17.30;;;;;;;6.46;86.57;101101.06;86889;1295;95830;-63
2021/11/24 08:36:07;;;;;;;26.30;18.40;;;;;;;6.46;86.63;101106.55;86908;1298;88669;-63
2021/11/24 08:38:17;;;;;;;26.50;18.80;;;;;;;6.44;86.58;101104.10;86905;1299;95673;-62
2021/11/24 08:40:32;;;;;;;111.20;66.70;;;;;;;6.44;86.48;101104.58;86895;1302;81625;-70
2021/11/24 08:43:02;;;;;;;63.20;43.80;;;;;;;6.46;86.58;101110.51;86926;1299;80929;-70
2021/11/24 08:45:24;;;;;;;25.00;17.60;;;;;;;6.51;86.59;101112.52;86774;1301;100449;-63
2021/11/24 08:47:33;;;;;;;25.50;18.10;;;;;;;6.55;86.56;101118.22;86898;1297;86919;-63
2021/11/24 08:49:43;;;;;;;25.20;18.20;;;;;;;6.53;86.59;101118.42;86924;1302;94046;-62
2021/11/24 08:51:52;;;;;;;26.10;17.80;;;;;;;6.57;86.50;101120.95;86900;1301;79883;-63
2021/11/24 08:54:07;;;;;;;25.30;18.30;;;;;;;6.60;86.58;101118.71;86914;1305;82689;-61
2021/11/24 08:56:17;;;;;;;28.10;17.20;;;;;;;6.57;86.61;101122.39;86911;1301;97240;-62
2021/11/24 08:58:26;;;;;;;25.60;17.80;;;;;;;6.58;86.57;101124.23;86948;1299;86636;-63
2021/11/24 09:00:38;;;;;;;24.90;17.70;;;;;;;6.57;86.42;101121.84;86908;1305;93445;-72
2021/11/24 09:02:52;;;;;;;27.60;19.10;;;;;;;6.50;86.50;101121.79;86891;1302;79706;-69
2021/11/24 09:05:02;;;;;;;26.20;18.20;;;;;;;6.54;86.53;101120.82;86926;1303;82157;-70
2021/11/24 09:07:11;;;;;;;25.60;18.10;;;;;;;6.58;86.41;101120.55;86937;1298;97631;-62
2021/11/24 09:09:21;;;;;;;26.70;17.50;;;;;;;6.53;86.54;101118.92;86911;1299;88319;-62
2021/11/24 09:11:31;;;;;;;26.40;17.60;;;;;;;6.55;86.57;101113.39;86911;1299;94622;-62
2021/11/24 09:13:40;;;;;;;26.50;17.80;;;;;;;6.64;86.58;101112.02;86919;1298;78939;-63
2021/11/24 09:15:53;;;;;;;29.50;18.10;;;;;;;6.78;86.61;101104.55;86925;1304;80230;-63
2021/11/24 09:18:04;;;;;;;28.60;19.50;;;;;;;6.88;86.42;101106.64;86899;1302;99170;-63
2021/11/24 09:20:17;;;;;;;29.40;17.80;;;;;;;6.94;86.12;101101.59;86856;1301;88322;-69
2021/11/24 09:22:27;;;;;;;26.90;19.50;;;;;;;6.96;86.07;101101.92;86850;1302;95045;-71
2021/11/24 09:24:37;;;;;;;27.70;18.80;;;;;;;6.97;86.25;101099.45;86911;1300;81321;-71
2021/11/24 09:26:55;;;;;;;24.80;18.30;;;;;;;7.01;86.03;101099.45;86923;1302;80456;-70
2021/11/24 09:29:05;;;;;;;27.10;17.80;;;;;;;7.01;85.99;101095.30;86898;1305;99009;-70
2021/11/24 09:31:17;;;;;;;24.60;16.70;;;;;;;7.05;86.01;101098.48;86912;1299;88720;-62
2021/11/24 09:33:26;;;;;;;27.50;17.80;;;;;;;7.03;85.88;101099.83;86931;1305;94316;-63
2021/11/24 09:35:40;;;;;;;24.50;17.70;;;;;;;6.98;85.75;101097.58;86934;1301;79107;-63
2021/11/24 09:37:49;;;;;;;24.80;17.80;;;;;;;6.95;85.57;101097.17;86910;1304;80439;-69
2021/11/24 09:40:00;;;;;;;25.50;19.00;;;;;;;6.91;85.57;101094.84;86913;1302;98213;-63
2021/11/24 09:42:15;;;;;;;25.70;18.50;;;;;;;6.88;85.46;101093.62;86912;1299;89787;-64
2021/11/24 09:44:28;;;;;;;25.60;17.60;;;;;;;6.85;85.55;101091.50;86891;1296;95014;-63
2021/11/24 09:46:46;;;;;;;26.50;18.50;;;;;;;6.83;85.56;101094.41;86913;1302;80023;-62
2021/11/24 09:48:59;;;;;;;27.40;17.40;;;;;;;6.85;85.53;101086.73;86936;1302;81357;-61
2021/11/24 09:51:08;;;;;;;26.00;17.80;;;;;;;6.84;85.59;101091.79;86895;1298;99093;-70
2021/11/24 09:53:19;;;;;;;28.10;18.20;;;;;;;6.88;85.59;101084.95;86920;1302;89520;-69
2021/11/24 09:55:33;;;;;;;27.20;19.10;;;;;;;6.94;85.68;101087.75;86901;1299;95990;-69
2021/11/24 09:57:43;;;;;;;27.60;18.40;;;;;;;7.03;85.59;101088.90;86880;1301;82734;-69
2021/11/24 09:59:53;;;;;;;27.00;17.80;;;;;;;7.08;85.41;101087.32;86937;1302;81165;-68
2021/11/24 10:02:08;;;;;;;26.30;17.50;;;;;;;7.08;85.32;101084.23;86881;1299;99266;-68
2021/11/24 10:04:22;;;;;;;25.50;17.40;;;;;;;7.09;85.29;101083.90;86927;1300;89013;-69